sensor_id;sensor_type;location;lat;lon;timestamp;temperature;humidity
10300;DHT22;5195;48.562;9.192;2022-07-29T00:00:15;22.10;65.40
10300;DHT22;5195;48.562;9.192;2022-07-29T00:02:42;22.10;64.80
10300;DHT22;5195;48.562;9.192;2022-07-29T00:05:07;22.00;64.70
10300;DHT22;5195;48.562;9.192;2022-07-29T00:07:36;22.30;63.40
10300;DHT22;5195;48.562;9.192;2022-07-29T00:10:01;22.40;63.10
10300;DHT22;5195;48.562;9.192;2022-07-29T00:12:27;22.60;62.50
10300;DHT22;5195;48.562;9.192;2022-07-29T00:14:56;22.90;61.50
10300;DHT22;5195;48.562;9.192;2022-07-29T00:17:18;22.80;61.70
10300;DHT22;5195;48.562;9.192;2022-07-29T00:19:44;22.60;62.20
10300;DHT22;5195;48.562;9.192;2022-07-29T00:22:10;22.40;63.40
10300;DHT22;5195;48.562;9.192;2022-07-29T00:24:35;22.40;63.40
10300;DHT22;5195;48.562;9.192;2022-07-29T00:27:01;22.40;63.20
10300;DHT22;5195;48.562;9.192;2022-07-29T00:29:26;22.50;63.10
10300;DHT22;5195;48.562;9.192;2022-07-29T00:31:52;22.50;62.50
10300;DHT22;5195;48.562;9.192;2022-07-29T00:34:18;22.20;62.90
10300;DHT22;5195;48.562;9.192;2022-07-29T00:37:03;22.00;63.30
10300;DHT22;5195;48.562;9.192;2022-07-29T00:39:29;21.80;63.80
10300;DHT22;5195;48.562;9.192;2022-07-29T00:41:56;21.60;64.00
10300;DHT22;5195;48.562;9.192;2022-07-29T00:44:21;21.90;63.10
10300;DHT22;5195;48.562;9.192;2022-07-29T00:46:47;21.90;63.00
10300;DHT22;5195;48.562;9.192;2022-07-29T00:49:12;21.70;63.40
10300;DHT22;5195;48.562;9.192;2022-07-29T00:51:38;21.90;62.80
10300;DHT22;5195;48.562;9.192;2022-07-29T00:54:06;21.90;63.50
10300;DHT22;5195;48.562;9.192;2022-07-29T00:56:32;22.10;63.10
10300;DHT22;5195;48.562;9.192;2022-07-29T00:58:57;22.40;62.10
10300;DHT22;5195;48.562;9.192;2022-07-29T01:01:22;22.30;62.10
10300;DHT22;5195;48.562;9.192;2022-07-29T01:03:48;22.00;62.40
10300;DHT22;5195;48.562;9.192;2022-07-29T01:06:14;22.10;62.50
10300;DHT22;5195;48.562;9.192;2022-07-29T01:08:39;22.00;63.50
10300;DHT22;5195;48.562;9.192;2022-07-29T01:11:05;22.10;62.00
10300;DHT22;5195;48.562;9.192;2022-07-29T01:13:30;22.40;61.20
10300;DHT22;5195;48.562;9.192;2022-07-29T01:16:03;22.30;61.50
10300;DHT22;5195;48.562;9.192;2022-07-29T01:18:34;22.10;62.30
10300;DHT22;5195;48.562;9.192;2022-07-29T01:21:21;21.60;63.40
10300;DHT22;5195;48.562;9.192;2022-07-29T01:24:10;21.60;63.40
10300;DHT22;5195;48.562;9.192;2022-07-29T01:26:49;21.40;63.80
10300;DHT22;5195;48.562;9.192;2022-07-29T01:29:36;21.80;63.20
10300;DHT22;5195;48.562;9.192;2022-07-29T01:32:05;22.20;62.30
10300;DHT22;5195;48.562;9.192;2022-07-29T01:39:43;22.80;59.80
10300;DHT22;5195;48.562;9.192;2022-07-29T01:42:19;22.90;59.10
10300;DHT22;5195;48.562;9.192;2022-07-29T01:44:54;22.60;59.80
10300;DHT22;5195;48.562;9.192;2022-07-29T01:47:17;22.60;59.40
10300;DHT22;5195;48.562;9.192;2022-07-29T01:49:45;22.40;60.10
10300;DHT22;5195;48.562;9.192;2022-07-29T01:52:07;22.00;60.90
10300;DHT22;5195;48.562;9.192;2022-07-29T01:54:43;21.80;61.70
10300;DHT22;5195;48.562;9.192;2022-07-29T01:57:12;21.50;62.20
10300;DHT22;5195;48.562;9.192;2022-07-29T01:59:38;21.80;62.50
10300;DHT22;5195;48.562;9.192;2022-07-29T02:02:04;22.40;60.60
10300;DHT22;5195;48.562;9.192;2022-07-29T02:04:29;22.30;60.40
10300;DHT22;5195;48.562;9.192;2022-07-29T02:06:57;22.20;60.70
10300;DHT22;5195;48.562;9.192;2022-07-29T02:09:21;21.90;61.60
10300;DHT22;5195;48.562;9.192;2022-07-29T02:11:51;21.70;62.50
10300;DHT22;5195;48.562;9.192;2022-07-29T02:14:15;21.80;62.20
10300;DHT22;5195;48.562;9.192;2022-07-29T02:16:40;22.10;61.10
10300;DHT22;5195;48.562;9.192;2022-07-29T02:19:06;22.40;60.50
10300;DHT22;5195;48.562;9.192;2022-07-29T02:21:32;22.30;60.80
10300;DHT22;5195;48.562;9.192;2022-07-29T02:23:58;22.30;60.10
10300;DHT22;5195;48.562;9.192;2022-07-29T02:26:24;22.30;59.80
10300;DHT22;5195;48.562;9.192;2022-07-29T02:28:50;22.30;59.80
10300;DHT22;5195;48.562;9.192;2022-07-29T02:31:15;22.00;60.60
10300;DHT22;5195;48.562;9.192;2022-07-29T02:33:40;22.10;60.30
10300;DHT22;5195;48.562;9.192;2022-07-29T02:36:06;22.00;60.50
10300;DHT22;5195;48.562;9.192;2022-07-29T02:38:31;21.80;61.20
10300;DHT22;5195;48.562;9.192;2022-07-29T02:41:18;21.90;60.40
10300;DHT22;5195;48.562;9.192;2022-07-29T02:43:43;22.20;59.40
10300;DHT22;5195;48.562;9.192;2022-07-29T02:46:11;22.30;59.30
10300;DHT22;5195;48.562;9.192;2022-07-29T02:48:36;22.20;59.20
10300;DHT22;5195;48.562;9.192;2022-07-29T02:51:12;21.90;60.00
10300;DHT22;5195;48.562;9.192;2022-07-29T02:53:31;21.60;60.80
10300;DHT22;5195;48.562;9.192;2022-07-29T02:58:40;21.30;61.80
10300;DHT22;5195;48.562;9.192;2022-07-29T03:01:11;21.50;61.80
10300;DHT22;5195;48.562;9.192;2022-07-29T03:03:36;21.50;61.80
10300;DHT22;5195;48.562;9.192;2022-07-29T03:06:02;21.90;60.70
10300;DHT22;5195;48.562;9.192;2022-07-29T03:08:28;21.70;62.10
10300;DHT22;5195;48.562;9.192;2022-07-29T03:10:53;21.60;61.20
10300;DHT22;5195;48.562;9.192;2022-07-29T03:13:19;21.50;61.80
10300;DHT22;5195;48.562;9.192;2022-07-29T03:15:45;21.30;62.20
10300;DHT22;5195;48.562;9.192;2022-07-29T03:18:11;21.20;62.50
10300;DHT22;5195;48.562;9.192;2022-07-29T03:20:37;21.50;61.50
10300;DHT22;5195;48.562;9.192;2022-07-29T03:23:04;21.50;61.40
10300;DHT22;5195;48.562;9.192;2022-07-29T03:25:29;21.80;61.00
10300;DHT22;5195;48.562;9.192;2022-07-29T03:27:55;22.10;60.20
10300;DHT22;5195;48.562;9.192;2022-07-29T03:30:20;22.00;60.30
10300;DHT22;5195;48.562;9.192;2022-07-29T03:32:46;22.10;60.00
10300;DHT22;5195;48.562;9.192;2022-07-29T03:35:11;22.30;59.00
10300;DHT22;5195;48.562;9.192;2022-07-29T03:37:37;22.20;59.40
10300;DHT22;5195;48.562;9.192;2022-07-29T03:40:03;21.90;60.10
10300;DHT22;5195;48.562;9.192;2022-07-29T03:42:30;22.00;59.80
10300;DHT22;5195;48.562;9.192;2022-07-29T03:44:54;21.90;60.00
10300;DHT22;5195;48.562;9.192;2022-07-29T03:47:22;22.00;59.80
10300;DHT22;5195;48.562;9.192;2022-07-29T03:49:46;21.90;60.00
10300;DHT22;5195;48.562;9.192;2022-07-29T03:52:12;21.60;60.50
10300;DHT22;5195;48.562;9.192;2022-07-29T03:54:38;21.30;62.20
10300;DHT22;5195;48.562;9.192;2022-07-29T03:57:04;21.30;61.70
10300;DHT22;5195;48.562;9.192;2022-07-29T03:59:30;21.40;61.30
10300;DHT22;5195;48.562;9.192;2022-07-29T04:01:55;21.80;60.50
10300;DHT22;5195;48.562;9.192;2022-07-29T04:04:22;21.80;60.60
10300;DHT22;5195;48.562;9.192;2022-07-29T04:06:48;21.50;61.20
10300;DHT22;5195;48.562;9.192;2022-07-29T04:09:14;21.70;60.00
10300;DHT22;5195;48.562;9.192;2022-07-29T04:11:39;22.00;59.20
10300;DHT22;5195;48.562;9.192;2022-07-29T04:14:06;22.20;58.30
10300;DHT22;5195;48.562;9.192;2022-07-29T04:16:31;22.10;58.90
10300;DHT22;5195;48.562;9.192;2022-07-29T04:18:57;22.20;58.40
10300;DHT22;5195;48.562;9.192;2022-07-29T04:21:22;22.10;58.90
10300;DHT22;5195;48.562;9.192;2022-07-29T04:23:50;21.90;59.50
10300;DHT22;5195;48.562;9.192;2022-07-29T04:26:16;22.00;58.90
10300;DHT22;5195;48.562;9.192;2022-07-29T04:28:41;22.50;57.50
10300;DHT22;5195;48.562;9.192;2022-07-29T04:31:07;22.50;57.50
10300;DHT22;5195;48.562;9.192;2022-07-29T04:33:32;22.30;57.90
10300;DHT22;5195;48.562;9.192;2022-07-29T04:35:58;22.30;57.80
10300;DHT22;5195;48.562;9.192;2022-07-29T04:38:24;22.50;57.00
10300;DHT22;5195;48.562;9.192;2022-07-29T04:40:50;22.50;57.00
10300;DHT22;5195;48.562;9.192;2022-07-29T04:43:15;22.30;57.60
10300;DHT22;5195;48.562;9.192;2022-07-29T04:45:41;22.30;57.60
10300;DHT22;5195;48.562;9.192;2022-07-29T04:48:06;22.40;57.30
10300;DHT22;5195;48.562;9.192;2022-07-29T04:50:34;22.60;57.00
10300;DHT22;5195;48.562;9.192;2022-07-29T04:52:59;22.60;56.80
10300;DHT22;5195;48.562;9.192;2022-07-29T04:55:25;22.40;57.50
10300;DHT22;5195;48.562;9.192;2022-07-29T04:57:50;22.30;57.40
10300;DHT22;5195;48.562;9.192;2022-07-29T05:00:18;22.70;56.60
10300;DHT22;5195;48.562;9.192;2022-07-29T05:02:43;22.70;56.70
10300;DHT22;5195;48.562;9.192;2022-07-29T05:05:11;22.50;57.10
10300;DHT22;5195;48.562;9.192;2022-07-29T05:07:38;22.50;57.10
10300;DHT22;5195;48.562;9.192;2022-07-29T05:10:03;22.70;56.50
10300;DHT22;5195;48.562;9.192;2022-07-29T05:12:29;22.50;57.10
10300;DHT22;5195;48.562;9.192;2022-07-29T05:14:54;22.60;57.50
10300;DHT22;5195;48.562;9.192;2022-07-29T05:17:23;22.50;58.00
10300;DHT22;5195;48.562;9.192;2022-07-29T05:19:49;22.30;58.40
10300;DHT22;5195;48.562;9.192;2022-07-29T05:22:14;22.50;57.30
10300;DHT22;5195;48.562;9.192;2022-07-29T05:24:40;22.80;56.40
10300;DHT22;5195;48.562;9.192;2022-07-29T05:27:05;23.00;56.00
10300;DHT22;5195;48.562;9.192;2022-07-29T05:29:32;22.90;56.50
10300;DHT22;5195;48.562;9.192;2022-07-29T05:31:58;23.00;56.10
10300;DHT22;5195;48.562;9.192;2022-07-29T05:34:27;23.50;55.90
10300;DHT22;5195;48.562;9.192;2022-07-29T05:36:53;23.40;56.80
10300;DHT22;5195;48.562;9.192;2022-07-29T05:39:19;23.40;56.80
10300;DHT22;5195;48.562;9.192;2022-07-29T05:41:44;23.10;57.50
10300;DHT22;5195;48.562;9.192;2022-07-29T05:44:11;23.30;57.50
10300;DHT22;5195;48.562;9.192;2022-07-29T05:46:36;23.60;58.10
10300;DHT22;5195;48.562;9.192;2022-07-29T05:49:02;23.90;56.30
10300;DHT22;5195;48.562;9.192;2022-07-29T05:51:28;23.90;56.50
10300;DHT22;5195;48.562;9.192;2022-07-29T05:53:53;23.70;57.00
10300;DHT22;5195;48.562;9.192;2022-07-29T05:56:19;23.80;56.00
10300;DHT22;5195;48.562;9.192;2022-07-29T05:58:45;24.00;56.50
10300;DHT22;5195;48.562;9.192;2022-07-29T06:01:11;24.20;56.80
10300;DHT22;5195;48.562;9.192;2022-07-29T06:03:36;24.40;56.20
10300;DHT22;5195;48.562;9.192;2022-07-29T06:06:02;24.50;56.10
10300;DHT22;5195;48.562;9.192;2022-07-29T06:08:27;24.60;55.60
10300;DHT22;5195;48.562;9.192;2022-07-29T06:10:54;24.00;57.00
10300;DHT22;5195;48.562;9.192;2022-07-29T06:13:19;23.90;56.90
10300;DHT22;5195;48.562;9.192;2022-07-29T06:15:45;24.00;57.50
10300;DHT22;5195;48.562;9.192;2022-07-29T06:18:11;23.80;57.90
10300;DHT22;5195;48.562;9.192;2022-07-29T06:20:37;23.40;58.90
10300;DHT22;5195;48.562;9.192;2022-07-29T06:23:02;23.40;58.90
10300;DHT22;5195;48.562;9.192;2022-07-29T06:25:30;23.70;58.10
10300;DHT22;5195;48.562;9.192;2022-07-29T06:27:57;23.70;58.00
10300;DHT22;5195;48.562;9.192;2022-07-29T06:30:22;23.60;58.30
10300;DHT22;5195;48.562;9.192;2022-07-29T06:32:49;23.50;58.90
10300;DHT22;5195;48.562;9.192;2022-07-29T06:35:14;23.50;58.90
10300;DHT22;5195;48.562;9.192;2022-07-29T06:37:40;23.70;59.60
10300;DHT22;5195;48.562;9.192;2022-07-29T06:40:05;24.20;57.30
10300;DHT22;5195;48.562;9.192;2022-07-29T06:42:51;24.80;58.20
10300;DHT22;5195;48.562;9.192;2022-07-29T06:45:17;25.30;58.30
10300;DHT22;5195;48.562;9.192;2022-07-29T06:47:42;25.60;57.50
10300;DHT22;5195;48.562;9.192;2022-07-29T06:50:08;26.40;53.80
10300;DHT22;5195;48.562;9.192;2022-07-29T06:52:33;27.30;50.40
10300;DHT22;5195;48.562;9.192;2022-07-29T06:54:59;27.90;49.10
10300;DHT22;5195;48.562;9.192;2022-07-29T06:57:25;29.00;46.90
10300;DHT22;5195;48.562;9.192;2022-07-29T06:59:51;29.00;46.90
10300;DHT22;5195;48.562;9.192;2022-07-29T07:02:16;29.20;48.50
10300;DHT22;5195;48.562;9.192;2022-07-29T07:04:43;29.10;49.00
10300;DHT22;5195;48.562;9.192;2022-07-29T07:07:09;29.00;49.60
10300;DHT22;5195;48.562;9.192;2022-07-29T07:09:34;28.90;49.70
10300;DHT22;5195;48.562;9.192;2022-07-29T07:12:01;28.90;50.10
10300;DHT22;5195;48.562;9.192;2022-07-29T07:14:27;28.80;50.00
10300;DHT22;5195;48.562;9.192;2022-07-29T07:16:52;28.60;50.00
10300;DHT22;5195;48.562;9.192;2022-07-29T07:19:18;28.80;48.40
10300;DHT22;5195;48.562;9.192;2022-07-29T07:21:43;28.80;49.10
10300;DHT22;5195;48.562;9.192;2022-07-29T07:24:09;28.90;47.90
10300;DHT22;5195;48.562;9.192;2022-07-29T07:26:34;28.60;48.60
10300;DHT22;5195;48.562;9.192;2022-07-29T07:29:00;28.50;48.00
10300;DHT22;5195;48.562;9.192;2022-07-29T07:31:25;28.30;49.10
10300;DHT22;5195;48.562;9.192;2022-07-29T07:33:51;28.20;49.10
10300;DHT22;5195;48.562;9.192;2022-07-29T07:36:17;28.20;49.50
10300;DHT22;5195;48.562;9.192;2022-07-29T07:38:42;28.30;48.90
10300;DHT22;5195;48.562;9.192;2022-07-29T07:41:08;28.50;47.60
10300;DHT22;5195;48.562;9.192;2022-07-29T07:43:33;28.70;48.00
10300;DHT22;5195;48.562;9.192;2022-07-29T07:46:03;28.90;47.50
10300;DHT22;5195;48.562;9.192;2022-07-29T07:48:29;29.00;47.10
10300;DHT22;5195;48.562;9.192;2022-07-29T07:50:54;29.10;46.40
10300;DHT22;5195;48.562;9.192;2022-07-29T07:53:20;29.20;47.10
10300;DHT22;5195;48.562;9.192;2022-07-29T07:55:46;29.40;47.00
10300;DHT22;5195;48.562;9.192;2022-07-29T07:58:11;29.50;46.20
10300;DHT22;5195;48.562;9.192;2022-07-29T08:00:37;29.60;46.30
10300;DHT22;5195;48.562;9.192;2022-07-29T08:03:02;29.80;45.30
10300;DHT22;5195;48.562;9.192;2022-07-29T08:05:28;30.00;46.60
10300;DHT22;5195;48.562;9.192;2022-07-29T08:07:53;30.00;46.80
10300;DHT22;5195;48.562;9.192;2022-07-29T08:10:20;30.10;47.10
10300;DHT22;5195;48.562;9.192;2022-07-29T08:13:06;30.10;47.20
10300;DHT22;5195;48.562;9.192;2022-07-29T08:15:31;29.90;47.60
10300;DHT22;5195;48.562;9.192;2022-07-29T08:17:58;29.80;48.40
10300;DHT22;5195;48.562;9.192;2022-07-29T08:20:24;29.70;48.30
10300;DHT22;5195;48.562;9.192;2022-07-29T08:22:51;30.00;45.80
10300;DHT22;5195;48.562;9.192;2022-07-29T08:25:16;30.50;45.30
10300;DHT22;5195;48.562;9.192;2022-07-29T08:27:42;30.50;46.40
10300;DHT22;5195;48.562;9.192;2022-07-29T08:30:08;30.60;45.10
10300;DHT22;5195;48.562;9.192;2022-07-29T08:32:37;30.60;45.00
10300;DHT22;5195;48.562;9.192;2022-07-29T08:35:03;30.50;45.80
10300;DHT22;5195;48.562;9.192;2022-07-29T08:37:28;30.70;44.70
10300;DHT22;5195;48.562;9.192;2022-07-29T08:39:54;31.00;43.60
10300;DHT22;5195;48.562;9.192;2022-07-29T08:42:19;31.00;44.70
10300;DHT22;5195;48.562;9.192;2022-07-29T08:44:47;31.10;45.20
10300;DHT22;5195;48.562;9.192;2022-07-29T08:47:15;31.10;44.60
10300;DHT22;5195;48.562;9.192;2022-07-29T08:49:41;31.30;43.00
10300;DHT22;5195;48.562;9.192;2022-07-29T08:52:06;31.20;43.70
10300;DHT22;5195;48.562;9.192;2022-07-29T08:54:32;31.40;41.50
10300;DHT22;5195;48.562;9.192;2022-07-29T08:56:59;31.40;42.00
10300;DHT22;5195;48.562;9.192;2022-07-29T08:59:25;31.50;40.90
10300;DHT22;5195;48.562;9.192;2022-07-29T09:01:50;31.50;41.90
10300;DHT22;5195;48.562;9.192;2022-07-29T09:04:15;31.40;42.60
10300;DHT22;5195;48.562;9.192;2022-07-29T09:06:45;31.20;43.00
10300;DHT22;5195;48.562;9.192;2022-07-29T09:09:07;31.10;42.80
10300;DHT22;5195;48.562;9.192;2022-07-29T09:11:33;31.40;39.80
10300;DHT22;5195;48.562;9.192;2022-07-29T09:13:58;31.60;40.50
10300;DHT22;5195;48.562;9.192;2022-07-29T09:16:25;31.80;39.00
10300;DHT22;5195;48.562;9.192;2022-07-29T09:18:50;31.80;39.00
10300;DHT22;5195;48.562;9.192;2022-07-29T09:21:17;32.10;39.20
10300;DHT22;5195;48.562;9.192;2022-07-29T09:24:10;32.20;39.20
10300;DHT22;5195;48.562;9.192;2022-07-29T09:26:40;32.30;37.10
10300;DHT22;5195;48.562;9.192;2022-07-29T09:29:07;32.50;37.10
10300;DHT22;5195;48.562;9.192;2022-07-29T09:31:33;32.70;39.10
10300;DHT22;5195;48.562;9.192;2022-07-29T09:33:58;32.70;39.60
10300;DHT22;5195;48.562;9.192;2022-07-29T09:36:25;32.50;39.70
10300;DHT22;5195;48.562;9.192;2022-07-29T09:38:59;32.50;38.00
10300;DHT22;5195;48.562;9.192;2022-07-29T09:41:24;32.60;37.50
10300;DHT22;5195;48.562;9.192;2022-07-29T09:43:54;32.80;37.00
10300;DHT22;5195;48.562;9.192;2022-07-29T09:46:20;32.90;37.70
10300;DHT22;5195;48.562;9.192;2022-07-29T09:48:45;32.80;38.40
10300;DHT22;5195;48.562;9.192;2022-07-29T09:51:18;32.60;37.80
10300;DHT22;5195;48.562;9.192;2022-07-29T09:53:44;32.50;37.80
10300;DHT22;5195;48.562;9.192;2022-07-29T09:56:09;32.70;36.70
10300;DHT22;5195;48.562;9.192;2022-07-29T09:58:35;32.60;38.00
10300;DHT22;5195;48.562;9.192;2022-07-29T10:01:02;32.30;38.70
10300;DHT22;5195;48.562;9.192;2022-07-29T10:03:29;32.10;39.00
10300;DHT22;5195;48.562;9.192;2022-07-29T10:06:05;32.30;38.00
10300;DHT22;5195;48.562;9.192;2022-07-29T10:08:30;32.60;36.70
10300;DHT22;5195;48.562;9.192;2022-07-29T10:11:03;32.80;38.50
10300;DHT22;5195;48.562;9.192;2022-07-29T10:13:21;33.10;36.70
10300;DHT22;5195;48.562;9.192;2022-07-29T10:15:47;33.30;36.60
10300;DHT22;5195;48.562;9.192;2022-07-29T10:18:13;33.30;36.60
10300;DHT22;5195;48.562;9.192;2022-07-29T10:20:39;33.20;37.30
10300;DHT22;5195;48.562;9.192;2022-07-29T10:23:04;33.20;33.60
10300;DHT22;5195;48.562;9.192;2022-07-29T10:25:30;33.20;35.60
10300;DHT22;5195;48.562;9.192;2022-07-29T10:27:55;33.10;35.70
10300;DHT22;5195;48.562;9.192;2022-07-29T10:30:21;33.20;34.40
10300;DHT22;5195;48.562;9.192;2022-07-29T10:33:23;33.40;36.40
10300;DHT22;5195;48.562;9.192;2022-07-29T10:38:55;33.00;36.60
10300;DHT22;5195;48.562;9.192;2022-07-29T10:41:47;32.70;36.60
10300;DHT22;5195;48.562;9.192;2022-07-29T10:44:14;32.60;34.70
10300;DHT22;5195;48.562;9.192;2022-07-29T10:46:36;32.50;34.60
10300;DHT22;5195;48.562;9.192;2022-07-29T10:52:00;33.00;33.60
10300;DHT22;5195;48.562;9.192;2022-07-29T10:54:43;33.20;33.90
10300;DHT22;5195;48.562;9.192;2022-07-29T11:05:01;33.20;34.30
10300;DHT22;5195;48.562;9.192;2022-07-29T11:07:26;33.10;31.60
10300;DHT22;5195;48.562;9.192;2022-07-29T11:15:09;33.10;34.40
10300;DHT22;5195;48.562;9.192;2022-07-29T11:20:38;32.60;35.10
10300;DHT22;5195;48.562;9.192;2022-07-29T11:23:30;32.70;34.00
10300;DHT22;5195;48.562;9.192;2022-07-29T11:28:34;32.90;35.10
10300;DHT22;5195;48.562;9.192;2022-07-29T11:31:01;32.80;34.70
10300;DHT22;5195;48.562;9.192;2022-07-29T11:33:27;32.80;34.60
10300;DHT22;5195;48.562;9.192;2022-07-29T11:36:10;32.10;34.80
10300;DHT22;5195;48.562;9.192;2022-07-29T11:38:35;32.10;34.80
10300;DHT22;5195;48.562;9.192;2022-07-29T11:43:49;30.90;36.70
10300;DHT22;5195;48.562;9.192;2022-07-29T11:46:14;30.30;37.80
10300;DHT22;5195;48.562;9.192;2022-07-29T11:48:43;30.20;37.20
10300;DHT22;5195;48.562;9.192;2022-07-29T11:51:09;29.90;38.20
10300;DHT22;5195;48.562;9.192;2022-07-29T11:53:34;29.90;40.00
10300;DHT22;5195;48.562;9.192;2022-07-29T11:56:00;29.90;40.00
10300;DHT22;5195;48.562;9.192;2022-07-29T11:58:26;30.40;40.90
10300;DHT22;5195;48.562;9.192;2022-07-29T12:00:51;30.50;41.00
10300;DHT22;5195;48.562;9.192;2022-07-29T12:03:23;30.30;41.10
10300;DHT22;5195;48.562;9.192;2022-07-29T12:05:43;30.00;41.70
10300;DHT22;5195;48.562;9.192;2022-07-29T12:08:16;30.20;42.10
10300;DHT22;5195;48.562;9.192;2022-07-29T12:10:40;30.30;42.40
10300;DHT22;5195;48.562;9.192;2022-07-29T12:13:06;30.40;41.50
10300;DHT22;5195;48.562;9.192;2022-07-29T12:15:31;30.60;41.20
10300;DHT22;5195;48.562;9.192;2022-07-29T12:17:57;30.80;40.80
10300;DHT22;5195;48.562;9.192;2022-07-29T12:20:25;30.90;40.70
10300;DHT22;5195;48.562;9.192;2022-07-29T12:22:49;30.90;39.70
10300;DHT22;5195;48.562;9.192;2022-07-29T12:25:15;30.80;39.00
10300;DHT22;5195;48.562;9.192;2022-07-29T12:27:41;30.50;40.10
10300;DHT22;5195;48.562;9.192;2022-07-29T12:30:10;30.40;40.10
10300;DHT22;5195;48.562;9.192;2022-07-29T12:32:39;30.20;40.80
10300;DHT22;5195;48.562;9.192;2022-07-29T12:37:33;30.00;40.00
10300;DHT22;5195;48.562;9.192;2022-07-29T12:39:58;29.60;41.00
10300;DHT22;5195;48.562;9.192;2022-07-29T12:42:24;29.80;40.80
10300;DHT22;5195;48.562;9.192;2022-07-29T12:44:50;29.80;40.80
10300;DHT22;5195;48.562;9.192;2022-07-29T12:47:15;29.90;40.30
10300;DHT22;5195;48.562;9.192;2022-07-29T12:49:41;30.00;40.10
10300;DHT22;5195;48.562;9.192;2022-07-29T12:52:33;29.90;40.20
10300;DHT22;5195;48.562;9.192;2022-07-29T12:54:56;29.90;40.20
10300;DHT22;5195;48.562;9.192;2022-07-29T12:57:21;29.60;41.30
10300;DHT22;5195;48.562;9.192;2022-07-29T13:00:10;29.40;41.70
10300;DHT22;5195;48.562;9.192;2022-07-29T13:02:39;29.70;40.30
10300;DHT22;5195;48.562;9.192;2022-07-29T13:05:04;30.10;39.60
10300;DHT22;5195;48.562;9.192;2022-07-29T13:07:32;30.20;40.20
10300;DHT22;5195;48.562;9.192;2022-07-29T13:12:36;30.40;39.80
10300;DHT22;5195;48.562;9.192;2022-07-29T13:15:11;30.20;40.10
10300;DHT22;5195;48.562;9.192;2022-07-29T13:17:27;30.00;40.50
10300;DHT22;5195;48.562;9.192;2022-07-29T13:20:05;29.70;40.90
10300;DHT22;5195;48.562;9.192;2022-07-29T13:22:22;29.50;41.00
10300;DHT22;5195;48.562;9.192;2022-07-29T13:24:55;29.40;39.50
10300;DHT22;5195;48.562;9.192;2022-07-29T13:27:21;29.40;39.50
10300;DHT22;5195;48.562;9.192;2022-07-29T13:29:45;29.80;38.70
10300;DHT22;5195;48.562;9.192;2022-07-29T13:32:12;29.30;42.10
10300;DHT22;5195;48.562;9.192;2022-07-29T13:34:39;29.30;42.00
10300;DHT22;5195;48.562;9.192;2022-07-29T13:37:04;28.90;43.00
10300;DHT22;5195;48.562;9.192;2022-07-29T13:39:30;28.30;44.30
10300;DHT22;5195;48.562;9.192;2022-07-29T13:41:55;27.60;45.10
10300;DHT22;5195;48.562;9.192;2022-07-29T13:44:21;26.90;46.70
10300;DHT22;5195;48.562;9.192;2022-07-29T13:46:47;26.30;47.90
10300;DHT22;5195;48.562;9.192;2022-07-29T13:49:12;26.00;49.10
10300;DHT22;5195;48.562;9.192;2022-07-29T13:51:39;26.10;51.70
10300;DHT22;5195;48.562;9.192;2022-07-29T13:54:06;26.50;50.90
10300;DHT22;5195;48.562;9.192;2022-07-29T13:56:31;26.50;50.40
10300;DHT22;5195;48.562;9.192;2022-07-29T13:58:57;26.30;50.20
10300;DHT22;5195;48.562;9.192;2022-07-29T14:01:23;26.60;50.80
10300;DHT22;5195;48.562;9.192;2022-07-29T14:03:48;27.00;51.40
10300;DHT22;5195;48.562;9.192;2022-07-29T14:06:14;27.20;48.80
10300;DHT22;5195;48.562;9.192;2022-07-29T14:08:40;27.40;48.60
10300;DHT22;5195;48.562;9.192;2022-07-29T14:11:06;27.30;48.30
10300;DHT22;5195;48.562;9.192;2022-07-29T14:13:31;27.20;45.60
10300;DHT22;5195;48.562;9.192;2022-07-29T14:15:57;27.00;46.40
10300;DHT22;5195;48.562;9.192;2022-07-29T14:18:23;27.00;48.60
10300;DHT22;5195;48.562;9.192;2022-07-29T14:20:49;27.00;48.50
10300;DHT22;5195;48.562;9.192;2022-07-29T14:23:15;27.40;49.40
10300;DHT22;5195;48.562;9.192;2022-07-29T14:25:41;27.40;49.40
10300;DHT22;5195;48.562;9.192;2022-07-29T14:28:07;27.30;48.70
10300;DHT22;5195;48.562;9.192;2022-07-29T14:30:33;27.30;48.70
10300;DHT22;5195;48.562;9.192;2022-07-29T14:32:58;27.50;48.70
10300;DHT22;5195;48.562;9.192;2022-07-29T14:35:24;27.30;48.70
10300;DHT22;5195;48.562;9.192;2022-07-29T14:37:49;27.30;48.10
10300;DHT22;5195;48.562;9.192;2022-07-29T14:40:15;27.50;48.90
10300;DHT22;5195;48.562;9.192;2022-07-29T14:42:40;27.40;49.20
10300;DHT22;5195;48.562;9.192;2022-07-29T14:45:07;27.50;48.80
10300;DHT22;5195;48.562;9.192;2022-07-29T14:47:32;27.40;48.80
10300;DHT22;5195;48.562;9.192;2022-07-29T14:49:57;27.20;48.80
10300;DHT22;5195;48.562;9.192;2022-07-29T14:52:23;27.30;48.60
10300;DHT22;5195;48.562;9.192;2022-07-29T14:54:48;27.40;48.80
10300;DHT22;5195;48.562;9.192;2022-07-29T14:57:14;27.30;49.60
10300;DHT22;5195;48.562;9.192;2022-07-29T14:59:41;27.30;50.30
10300;DHT22;5195;48.562;9.192;2022-07-29T15:02:06;27.30;50.10
10300;DHT22;5195;48.562;9.192;2022-07-29T15:04:33;27.20;49.70
10300;DHT22;5195;48.562;9.192;2022-07-29T15:06:58;27.10;49.50
10300;DHT22;5195;48.562;9.192;2022-07-29T15:09:25;27.70;47.50
10300;DHT22;5195;48.562;9.192;2022-07-29T15:11:50;27.70;47.40
10300;DHT22;5195;48.562;9.192;2022-07-29T15:14:17;27.60;48.00
10300;DHT22;5195;48.562;9.192;2022-07-29T15:16:44;27.90;47.90
10300;DHT22;5195;48.562;9.192;2022-07-29T15:19:09;27.90;48.00
10300;DHT22;5195;48.562;9.192;2022-07-29T15:21:35;27.70;48.30
10300;DHT22;5195;48.562;9.192;2022-07-29T15:24:00;27.40;49.00
10300;DHT22;5195;48.562;9.192;2022-07-29T15:26:26;27.20;49.30
10300;DHT22;5195;48.562;9.192;2022-07-29T15:28:51;27.10;49.50
10300;DHT22;5195;48.562;9.192;2022-07-29T15:31:17;27.30;49.20
10300;DHT22;5195;48.562;9.192;2022-07-29T15:33:42;27.40;49.40
10300;DHT22;5195;48.562;9.192;2022-07-29T15:36:08;27.30;49.40
10300;DHT22;5195;48.562;9.192;2022-07-29T15:38:34;27.60;48.40
10300;DHT22;5195;48.562;9.192;2022-07-29T15:41:01;27.60;48.80
10300;DHT22;5195;48.562;9.192;2022-07-29T15:43:26;27.50;48.90
10300;DHT22;5195;48.562;9.192;2022-07-29T15:45:52;27.30;48.70
10300;DHT22;5195;48.562;9.192;2022-07-29T15:48:37;27.60;47.70
10300;DHT22;5195;48.562;9.192;2022-07-29T15:51:03;27.60;48.10
10300;DHT22;5195;48.562;9.192;2022-07-29T15:53:29;27.70;47.70
10300;DHT22;5195;48.562;9.192;2022-07-29T15:55:55;27.70;47.60
10300;DHT22;5195;48.562;9.192;2022-07-29T15:58:20;27.70;48.00
10300;DHT22;5195;48.562;9.192;2022-07-29T16:00:46;27.50;48.50
10300;DHT22;5195;48.562;9.192;2022-07-29T16:03:11;27.40;49.10
10300;DHT22;5195;48.562;9.192;2022-07-29T16:05:37;27.30;49.60
10300;DHT22;5195;48.562;9.192;2022-07-29T16:08:03;27.50;48.60
10300;DHT22;5195;48.562;9.192;2022-07-29T16:10:29;27.60;48.90
10300;DHT22;5195;48.562;9.192;2022-07-29T16:12:55;27.80;48.00
10300;DHT22;5195;48.562;9.192;2022-07-29T16:15:20;27.80;47.70
10300;DHT22;5195;48.562;9.192;2022-07-29T16:17:46;27.70;48.60
10300;DHT22;5195;48.562;9.192;2022-07-29T16:20:12;27.90;47.10
10300;DHT22;5195;48.562;9.192;2022-07-29T16:22:37;28.20;46.20